sensor_id;sensor_type;location;lat;lon;timestamp;temperature;humidity
55634;DHT22;41504;53.162;6.788;2022-08-02T00:00:06;15.00;72.20
55634;DHT22;41504;53.162;6.788;2022-08-02T00:02:33;15.00;72.30
55634;DHT22;41504;53.162;6.788;2022-08-02T00:04:58;15.00;72.60
55634;DHT22;41504;53.162;6.788;2022-08-02T00:07:24;15.00;72.50
55634;DHT22;41504;53.162;6.788;2022-08-02T00:09:50;15.00;72.40
55634;DHT22;41504;53.162;6.788;2022-08-02T00:12:16;14.90;72.60
55634;DHT22;41504;53.162;6.788;2022-08-02T00:14:41;14.90;72.30
55634;DHT22;41504;53.162;6.788;2022-08-02T00:17:07;14.90;72.60
55634;DHT22;41504;53.162;6.788;2022-08-02T00:19:33;14.90;72.90
55634;DHT22;41504;53.162;6.788;2022-08-02T00:21:59;14.80;72.90
55634;DHT22;41504;53.162;6.788;2022-08-02T00:24:24;14.80;73.00
55634;DHT22;41504;53.162;6.788;2022-08-02T00:26:50;14.80;72.90
55634;DHT22;41504;53.162;6.788;2022-08-02T00:29:16;14.80;73.10
55634;DHT22;41504;53.162;6.788;2022-08-02T00:31:41;14.80;73.10
55634;DHT22;41504;53.162;6.788;2022-08-02T00:34:07;14.80;73.10
55634;DHT22;41504;53.162;6.788;2022-08-02T00:36:33;14.70;73.40
55634;DHT22;41504;53.162;6.788;2022-08-02T00:38:58;14.70;73.30
55634;DHT22;41504;53.162;6.788;2022-08-02T00:41:24;14.70;73.40
55634;DHT22;41504;53.162;6.788;2022-08-02T00:43:50;14.70;73.20
55634;DHT22;41504;53.162;6.788;2022-08-02T00:46:18;14.80;73.30
55634;DHT22;41504;53.162;6.788;2022-08-02T00:48:44;14.70;73.30
55634;DHT22;41504;53.162;6.788;2022-08-02T00:51:11;14.70;73.30
55634;DHT22;41504;53.162;6.788;2022-08-02T00:53:37;14.70;73.30
55634;DHT22;41504;53.162;6.788;2022-08-02T00:56:03;14.60;73.30
55634;DHT22;41504;53.162;6.788;2022-08-02T00:58:28;14.60;73.40
55634;DHT22;41504;53.162;6.788;2022-08-02T01:00:54;14.60;73.50
55634;DHT22;41504;53.162;6.788;2022-08-02T01:03:23;14.60;73.50
55634;DHT22;41504;53.162;6.788;2022-08-02T01:05:49;14.60;73.60
55634;DHT22;41504;53.162;6.788;2022-08-02T01:08:15;14.50;73.60
55634;DHT22;41504;53.162;6.788;2022-08-02T01:10:41;14.50;73.80
55634;DHT22;41504;53.162;6.788;2022-08-02T01:13:06;14.50;73.80
55634;DHT22;41504;53.162;6.788;2022-08-02T01:15:34;14.40;73.80
55634;DHT22;41504;53.162;6.788;2022-08-02T01:18:07;14.40;73.90
55634;DHT22;41504;53.162;6.788;2022-08-02T01:29:12;14.30;74.10
55634;DHT22;41504;53.162;6.788;2022-08-02T01:31:49;14.20;74.10
55634;DHT22;41504;53.162;6.788;2022-08-02T01:37:22;14.10;74.30
55634;DHT22;41504;53.162;6.788;2022-08-02T01:39:53;14.10;74.30
55634;DHT22;41504;53.162;6.788;2022-08-02T01:42:22;14.00;74.30
55634;DHT22;41504;53.162;6.788;2022-08-02T01:44:50;14.00;74.60
55634;DHT22;41504;53.162;6.788;2022-08-02T01:47:30;13.90;74.60
55634;DHT22;41504;53.162;6.788;2022-08-02T01:49:59;13.90;74.70
55634;DHT22;41504;53.162;6.788;2022-08-02T01:52:29;13.90;74.70
55634;DHT22;41504;53.162;6.788;2022-08-02T01:55:00;13.90;74.50
55634;DHT22;41504;53.162;6.788;2022-08-02T01:57:32;13.90;74.40
55634;DHT22;41504;53.162;6.788;2022-08-02T01:59:59;13.70;74.50
55634;DHT22;41504;53.162;6.788;2022-08-02T02:02:26;13.70;74.80
55634;DHT22;41504;53.162;6.788;2022-08-02T02:04:55;13.70;75.20
55634;DHT22;41504;53.162;6.788;2022-08-02T02:07:22;13.70;75.40
55634;DHT22;41504;53.162;6.788;2022-08-02T02:09:49;13.70;75.10
55634;DHT22;41504;53.162;6.788;2022-08-02T02:12:16;13.70;75.10
55634;DHT22;41504;53.162;6.788;2022-08-02T02:14:42;13.70;75.20
55634;DHT22;41504;53.162;6.788;2022-08-02T02:17:09;13.70;75.20
55634;DHT22;41504;53.162;6.788;2022-08-02T02:19:36;13.60;75.20
55634;DHT22;41504;53.162;6.788;2022-08-02T02:22:03;13.70;75.30
55634;DHT22;41504;53.162;6.788;2022-08-02T02:24:29;13.70;75.20
55634;DHT22;41504;53.162;6.788;2022-08-02T02:26:56;13.70;75.30
55634;DHT22;41504;53.162;6.788;2022-08-02T02:29:24;13.70;75.40
55634;DHT22;41504;53.162;6.788;2022-08-02T02:31:52;13.70;75.30
55634;DHT22;41504;53.162;6.788;2022-08-02T02:34:26;13.60;75.30
55634;DHT22;41504;53.162;6.788;2022-08-02T02:36:53;13.70;75.30
55634;DHT22;41504;53.162;6.788;2022-08-02T02:39:22;13.60;75.40
55634;DHT22;41504;53.162;6.788;2022-08-02T02:41:48;13.70;75.40
55634;DHT22;41504;53.162;6.788;2022-08-02T02:44:18;13.70;75.50
55634;DHT22;41504;53.162;6.788;2022-08-02T02:46:46;13.60;75.40
55634;DHT22;41504;53.162;6.788;2022-08-02T02:49:14;13.60;75.50
55634;DHT22;41504;53.162;6.788;2022-08-02T02:51:41;13.60;75.60
55634;DHT22;41504;53.162;6.788;2022-08-02T02:54:08;13.60;75.70
55634;DHT22;41504;53.162;6.788;2022-08-02T02:56:37;13.60;75.70
55634;DHT22;41504;53.162;6.788;2022-08-02T02:59:03;13.60;75.70
55634;DHT22;41504;53.162;6.788;2022-08-02T03:01:30;13.60;75.60
55634;DHT22;41504;53.162;6.788;2022-08-02T03:03:59;13.60;75.70
55634;DHT22;41504;53.162;6.788;2022-08-02T03:06:26;13.60;75.70
55634;DHT22;41504;53.162;6.788;2022-08-02T03:08:52;13.50;75.70
55634;DHT22;41504;53.162;6.788;2022-08-02T03:11:18;13.50;75.80
55634;DHT22;41504;53.162;6.788;2022-08-02T03:13:44;13.50;75.90
55634;DHT22;41504;53.162;6.788;2022-08-02T03:16:11;13.50;75.90
55634;DHT22;41504;53.162;6.788;2022-08-02T03:18:38;13.50;75.80
55634;DHT22;41504;53.162;6.788;2022-08-02T03:21:12;13.50;75.70
55634;DHT22;41504;53.162;6.788;2022-08-02T03:23:40;13.50;75.80
55634;DHT22;41504;53.162;6.788;2022-08-02T03:26:07;13.40;75.70
55634;DHT22;41504;53.162;6.788;2022-08-02T03:28:33;13.40;75.90
55634;DHT22;41504;53.162;6.788;2022-08-02T03:30:59;13.40;75.90
55634;DHT22;41504;53.162;6.788;2022-08-02T03:33:27;13.40;76.00
55634;DHT22;41504;53.162;6.788;2022-08-02T03:35:56;13.40;76.20
55634;DHT22;41504;53.162;6.788;2022-08-02T03:38:25;13.40;76.20
55634;DHT22;41504;53.162;6.788;2022-08-02T03:40:52;13.40;76.00
55634;DHT22;41504;53.162;6.788;2022-08-02T03:43:19;13.40;76.20
55634;DHT22;41504;53.162;6.788;2022-08-02T03:45:47;13.30;76.30
55634;DHT22;41504;53.162;6.788;2022-08-02T03:48:17;13.30;76.40
55634;DHT22;41504;53.162;6.788;2022-08-02T03:50:46;13.30;76.20
55634;DHT22;41504;53.162;6.788;2022-08-02T03:53:15;13.30;76.30
55634;DHT22;41504;53.162;6.788;2022-08-02T03:55:40;13.30;76.50
55634;DHT22;41504;53.162;6.788;2022-08-02T03:58:06;13.30;76.50
55634;DHT22;41504;53.162;6.788;2022-08-02T04:00:32;13.30;76.50
55634;DHT22;41504;53.162;6.788;2022-08-02T04:02:58;13.30;76.80
55634;DHT22;41504;53.162;6.788;2022-08-02T04:05:24;13.20;76.30
55634;DHT22;41504;53.162;6.788;2022-08-02T04:07:50;13.20;76.70
55634;DHT22;41504;53.162;6.788;2022-08-02T04:10:16;13.10;76.80
55634;DHT22;41504;53.162;6.788;2022-08-02T04:12:42;13.20;77.40
55634;DHT22;41504;53.162;6.788;2022-08-02T04:15:11;13.20;76.80
55634;DHT22;41504;53.162;6.788;2022-08-02T04:17:45;13.20;76.70
55634;DHT22;41504;53.162;6.788;2022-08-02T04:20:17;13.20;76.70
55634;DHT22;41504;53.162;6.788;2022-08-02T04:22:52;13.10;76.90
55634;DHT22;41504;53.162;6.788;2022-08-02T04:25:20;13.10;76.90
55634;DHT22;41504;53.162;6.788;2022-08-02T04:27:47;13.10;76.90
55634;DHT22;41504;53.162;6.788;2022-08-02T04:30:16;13.20;77.10
55634;DHT22;41504;53.162;6.788;2022-08-02T04:32:43;13.10;77.00
55634;DHT22;41504;53.162;6.788;2022-08-02T04:35:10;13.10;77.10
55634;DHT22;41504;53.162;6.788;2022-08-02T04:37:36;13.10;77.00
55634;DHT22;41504;53.162;6.788;2022-08-02T04:40:07;13.10;77.00
55634;DHT22;41504;53.162;6.788;2022-08-02T04:42:33;13.10;77.00
55634;DHT22;41504;53.162;6.788;2022-08-02T04:44:58;13.20;77.10
55634;DHT22;41504;53.162;6.788;2022-08-02T04:47:24;13.20;77.00
55634;DHT22;41504;53.162;6.788;2022-08-02T04:49:50;13.30;77.00
55634;DHT22;41504;53.162;6.788;2022-08-02T04:52:15;13.40;77.10
55634;DHT22;41504;53.162;6.788;2022-08-02T04:54:41;13.30;77.00
55634;DHT22;41504;53.162;6.788;2022-08-02T04:57:07;13.40;76.90
55634;DHT22;41504;53.162;6.788;2022-08-02T04:59:51;13.40;76.80
55634;DHT22;41504;53.162;6.788;2022-08-02T05:02:17;13.50;76.80
55634;DHT22;41504;53.162;6.788;2022-08-02T05:04:43;13.60;76.80
55634;DHT22;41504;53.162;6.788;2022-08-02T05:07:08;13.60;76.70
55634;DHT22;41504;53.162;6.788;2022-08-02T05:09:34;13.60;76.70
55634;DHT22;41504;53.162;6.788;2022-08-02T05:12:00;13.70;76.70
55634;DHT22;41504;53.162;6.788;2022-08-02T05:14:25;13.70;76.60
55634;DHT22;41504;53.162;6.788;2022-08-02T05:16:51;13.80;76.60
55634;DHT22;41504;53.162;6.788;2022-08-02T05:19:16;13.80;76.60
55634;DHT22;41504;53.162;6.788;2022-08-02T05:21:42;13.90;76.50
55634;DHT22;41504;53.162;6.788;2022-08-02T05:24:08;14.00;76.50
55634;DHT22;41504;53.162;6.788;2022-08-02T05:26:34;14.00;76.50
55634;DHT22;41504;53.162;6.788;2022-08-02T05:29:00;14.00;76.50
55634;DHT22;41504;53.162;6.788;2022-08-02T05:31:25;14.10;76.50
55634;DHT22;41504;53.162;6.788;2022-08-02T05:33:51;14.10;76.50
55634;DHT22;41504;53.162;6.788;2022-08-02T05:36:17;14.10;76.50
55634;DHT22;41504;53.162;6.788;2022-08-02T05:38:42;14.20;76.60
55634;DHT22;41504;53.162;6.788;2022-08-02T05:41:08;14.20;76.60
55634;DHT22;41504;53.162;6.788;2022-08-02T05:43:34;14.20;76.70
55634;DHT22;41504;53.162;6.788;2022-08-02T05:45:59;14.30;76.80
55634;DHT22;41504;53.162;6.788;2022-08-02T05:48:25;14.50;76.90
55634;DHT22;41504;53.162;6.788;2022-08-02T05:50:54;14.50;76.70
55634;DHT22;41504;53.162;6.788;2022-08-02T05:53:45;14.50;76.80
55634;DHT22;41504;53.162;6.788;2022-08-02T05:56:23;14.60;76.80
55634;DHT22;41504;53.162;6.788;2022-08-02T05:58:58;14.70;76.80
55634;DHT22;41504;53.162;6.788;2022-08-02T06:01:34;14.70;76.90
55634;DHT22;41504;53.162;6.788;2022-08-02T06:04:06;14.70;77.00
55634;DHT22;41504;53.162;6.788;2022-08-02T06:06:34;14.80;77.00
55634;DHT22;41504;53.162;6.788;2022-08-02T06:09:02;14.80;77.00
55634;DHT22;41504;53.162;6.788;2022-08-02T06:11:44;15.00;77.20
55634;DHT22;41504;53.162;6.788;2022-08-02T06:14:11;15.00;77.10
55634;DHT22;41504;53.162;6.788;2022-08-02T06:16:37;15.10;77.00
55634;DHT22;41504;53.162;6.788;2022-08-02T06:19:03;15.20;77.50
55634;DHT22;41504;53.162;6.788;2022-08-02T06:21:30;15.20;77.00
55634;DHT22;41504;53.162;6.788;2022-08-02T06:23:57;15.30;77.10
55634;DHT22;41504;53.162;6.788;2022-08-02T06:26:24;15.40;77.20
55634;DHT22;41504;53.162;6.788;2022-08-02T06:28:52;15.50;77.10
55634;DHT22;41504;53.162;6.788;2022-08-02T06:31:18;15.60;77.10
55634;DHT22;41504;53.162;6.788;2022-08-02T06:33:43;15.70;76.90
55634;DHT22;41504;53.162;6.788;2022-08-02T06:38:43;15.90;76.70
55634;DHT22;41504;53.162;6.788;2022-08-02T06:41:14;16.00;76.70
55634;DHT22;41504;53.162;6.788;2022-08-02T06:46:08;16.20;76.70
55634;DHT22;41504;53.162;6.788;2022-08-02T06:48:34;16.20;76.50
55634;DHT22;41504;53.162;6.788;2022-08-02T06:51:04;16.30;76.40
55634;DHT22;41504;53.162;6.788;2022-08-02T06:53:30;16.30;76.20
55634;DHT22;41504;53.162;6.788;2022-08-02T06:55:56;16.40;76.70
55634;DHT22;41504;53.162;6.788;2022-08-02T06:58:22;16.40;76.10
55634;DHT22;41504;53.162;6.788;2022-08-02T07:00:48;16.40;76.10
55634;DHT22;41504;53.162;6.788;2022-08-02T07:03:14;16.50;76.10
55634;DHT22;41504;53.162;6.788;2022-08-02T07:05:40;16.60;76.00
55634;DHT22;41504;53.162;6.788;2022-08-02T07:08:07;16.70;75.80
55634;DHT22;41504;53.162;6.788;2022-08-02T07:10:33;16.80;75.70
55634;DHT22;41504;53.162;6.788;2022-08-02T07:12:59;17.00;75.50
55634;DHT22;41504;53.162;6.788;2022-08-02T07:15:25;17.10;75.40
55634;DHT22;41504;53.162;6.788;2022-08-02T07:17:51;17.10;75.20
55634;DHT22;41504;53.162;6.788;2022-08-02T07:20:17;17.20;75.10
55634;DHT22;41504;53.162;6.788;2022-08-02T07:22:42;17.30;74.90
55634;DHT22;41504;53.162;6.788;2022-08-02T07:25:09;17.40;74.90
55634;DHT22;41504;53.162;6.788;2022-08-02T07:27:35;17.50;74.80
55634;DHT22;41504;53.162;6.788;2022-08-02T07:30:00;17.60;74.70
55634;DHT22;41504;53.162;6.788;2022-08-02T07:32:29;17.60;74.50
55634;DHT22;41504;53.162;6.788;2022-08-02T07:34:55;17.70;74.40
55634;DHT22;41504;53.162;6.788;2022-08-02T07:37:23;17.70;74.30
55634;DHT22;41504;53.162;6.788;2022-08-02T07:39:49;17.80;74.10
55634;DHT22;41504;53.162;6.788;2022-08-02T07:42:14;17.90;73.70
55634;DHT22;41504;53.162;6.788;2022-08-02T07:44:40;18.00;73.30
55634;DHT22;41504;53.162;6.788;2022-08-02T07:47:06;18.10;72.90
55634;DHT22;41504;53.162;6.788;2022-08-02T07:49:32;18.20;72.50
55634;DHT22;41504;53.162;6.788;2022-08-02T07:51:57;18.30;71.90
55634;DHT22;41504;53.162;6.788;2022-08-02T07:54:23;18.40;70.90
55634;DHT22;41504;53.162;6.788;2022-08-02T07:56:49;18.50;70.30
55634;DHT22;41504;53.162;6.788;2022-08-02T07:59:16;18.60;69.70
55634;DHT22;41504;53.162;6.788;2022-08-02T08:01:42;18.70;69.10
55634;DHT22;41504;53.162;6.788;2022-08-02T08:04:07;18.80;68.70
55634;DHT22;41504;53.162;6.788;2022-08-02T08:06:33;18.80;68.90
55634;DHT22;41504;53.162;6.788;2022-08-02T08:08:59;19.00;68.60
55634;DHT22;41504;53.162;6.788;2022-08-02T08:11:25;19.00;68.70
55634;DHT22;41504;53.162;6.788;2022-08-02T08:13:50;19.10;68.00
55634;DHT22;41504;53.162;6.788;2022-08-02T08:16:16;19.20;67.50
55634;DHT22;41504;53.162;6.788;2022-08-02T08:18:42;19.30;66.90
55634;DHT22;41504;53.162;6.788;2022-08-02T08:21:08;19.40;66.90
55634;DHT22;41504;53.162;6.788;2022-08-02T08:23:35;19.50;66.40
55634;DHT22;41504;53.162;6.788;2022-08-02T08:26:01;19.60;66.00
55634;DHT22;41504;53.162;6.788;2022-08-02T08:28:27;19.70;65.50
55634;DHT22;41504;53.162;6.788;2022-08-02T08:30:52;19.80;65.10
55634;DHT22;41504;53.162;6.788;2022-08-02T08:33:18;19.90;64.70
55634;DHT22;41504;53.162;6.788;2022-08-02T08:35:44;19.90;63.90
55634;DHT22;41504;53.162;6.788;2022-08-02T08:38:10;20.10;62.90
55634;DHT22;41504;53.162;6.788;2022-08-02T08:40:36;20.20;63.00
55634;DHT22;41504;53.162;6.788;2022-08-02T08:43:02;20.30;62.10
55634;DHT22;41504;53.162;6.788;2022-08-02T08:45:28;20.30;60.30
55634;DHT22;41504;53.162;6.788;2022-08-02T08:48:00;20.40;60.00
55634;DHT22;41504;53.162;6.788;2022-08-02T08:50:34;20.40;60.10
55634;DHT22;41504;53.162;6.788;2022-08-02T08:53:06;20.50;59.10
55634;DHT22;41504;53.162;6.788;2022-08-02T08:55:34;20.60;58.70
55634;DHT22;41504;53.162;6.788;2022-08-02T08:58:00;20.60;58.80
55634;DHT22;41504;53.162;6.788;2022-08-02T09:00:28;20.70;59.10
55634;DHT22;41504;53.162;6.788;2022-08-02T09:02:55;20.80;58.70
55634;DHT22;41504;53.162;6.788;2022-08-02T09:05:21;20.80;58.60
55634;DHT22;41504;53.162;6.788;2022-08-02T09:07:48;20.90;56.90
55634;DHT22;41504;53.162;6.788;2022-08-02T09:10:34;21.00;55.40
55634;DHT22;41504;53.162;6.788;2022-08-02T09:15:34;21.20;56.60
55634;DHT22;41504;53.162;6.788;2022-08-02T09:18:02;21.20;56.70
55634;DHT22;41504;53.162;6.788;2022-08-02T09:20:29;21.20;56.00
55634;DHT22;41504;53.162;6.788;2022-08-02T09:23:09;21.30;56.30
55634;DHT22;41504;53.162;6.788;2022-08-02T09:25:35;21.50;56.60
55634;DHT22;41504;53.162;6.788;2022-08-02T09:28:03;21.60;55.50
55634;DHT22;41504;53.162;6.788;2022-08-02T09:30:29;21.60;55.40
55634;DHT22;41504;53.162;6.788;2022-08-02T09:32:55;21.70;55.70
55634;DHT22;41504;53.162;6.788;2022-08-02T09:35:37;21.80;55.00
55634;DHT22;41504;53.162;6.788;2022-08-02T09:38:09;21.80;55.40
55634;DHT22;41504;53.162;6.788;2022-08-02T09:40:36;21.90;55.00
55634;DHT22;41504;53.162;6.788;2022-08-02T09:43:02;22.00;55.10
55634;DHT22;41504;53.162;6.788;2022-08-02T09:45:32;22.20;55.10
55634;DHT22;41504;53.162;6.788;2022-08-02T09:48:08;22.30;55.00
55634;DHT22;41504;53.162;6.788;2022-08-02T09:50:39;22.40;54.20
55634;DHT22;41504;53.162;6.788;2022-08-02T09:53:05;22.40;54.40
55634;DHT22;41504;53.162;6.788;2022-08-02T09:55:35;22.50;54.40
55634;DHT22;41504;53.162;6.788;2022-08-02T09:58:18;22.60;54.90
55634;DHT22;41504;53.162;6.788;2022-08-02T10:00:56;22.70;54.60
55634;DHT22;41504;53.162;6.788;2022-08-02T10:03:23;22.80;54.60
55634;DHT22;41504;53.162;6.788;2022-08-02T10:05:53;22.80;54.90
55634;DHT22;41504;53.162;6.788;2022-08-02T10:08:20;22.90;55.10
55634;DHT22;41504;53.162;6.788;2022-08-02T10:10:47;23.00;54.30
55634;DHT22;41504;53.162;6.788;2022-08-02T10:13:14;23.10;54.30
55634;DHT22;41504;53.162;6.788;2022-08-02T10:15:40;23.10;54.40
55634;DHT22;41504;53.162;6.788;2022-08-02T10:18:07;23.10;54.40
55634;DHT22;41504;53.162;6.788;2022-08-02T10:20:42;23.10;54.70
55634;DHT22;41504;53.162;6.788;2022-08-02T10:23:11;23.20;54.70
55634;DHT22;41504;53.162;6.788;2022-08-02T10:25:38;23.40;55.00
55634;DHT22;41504;53.162;6.788;2022-08-02T10:28:06;23.40;55.10
55634;DHT22;41504;53.162;6.788;2022-08-02T10:30:35;23.50;55.30
55634;DHT22;41504;53.162;6.788;2022-08-02T10:33:03;23.60;54.70
55634;DHT22;41504;53.162;6.788;2022-08-02T10:35:33;23.50;54.70
55634;DHT22;41504;53.162;6.788;2022-08-02T10:38:02;23.60;55.20
55634;DHT22;41504;53.162;6.788;2022-08-02T10:40:48;23.70;55.30
55634;DHT22;41504;53.162;6.788;2022-08-02T10:43:43;23.90;54.80
55634;DHT22;41504;53.162;6.788;2022-08-02T10:46:31;23.90;55.10
55634;DHT22;41504;53.162;6.788;2022-08-02T10:49:10;24.00;55.20
55634;DHT22;41504;53.162;6.788;2022-08-02T10:54:22;24.20;54.70
55634;DHT22;41504;53.162;6.788;2022-08-02T10:56:49;24.20;54.70
55634;DHT22;41504;53.162;6.788;2022-08-02T10:59:35;24.20;54.70
55634;DHT22;41504;53.162;6.788;2022-08-02T11:02:03;24.30;55.60
55634;DHT22;41504;53.162;6.788;2022-08-02T11:07:21;24.50;55.70
55634;DHT22;41504;53.162;6.788;2022-08-02T11:09:55;24.50;55.70
55634;DHT22;41504;53.162;6.788;2022-08-02T11:12:23;24.60;55.40
55634;DHT22;41504;53.162;6.788;2022-08-02T11:15:02;24.70;55.80
55634;DHT22;41504;53.162;6.788;2022-08-02T11:17:50;24.80;55.30
55634;DHT22;41504;53.162;6.788;2022-08-02T11:20:17;24.90;55.40
55634;DHT22;41504;53.162;6.788;2022-08-02T11:22:44;25.00;55.40
55634;DHT22;41504;53.162;6.788;2022-08-02T11:30:17;25.00;54.90
55634;DHT22;41504;53.162;6.788;2022-08-02T11:32:44;25.00;55.20
55634;DHT22;41504;53.162;6.788;2022-08-02T11:35:10;25.00;55.00
55634;DHT22;41504;53.162;6.788;2022-08-02T11:37:41;25.00;54.90
55634;DHT22;41504;53.162;6.788;2022-08-02T11:42:37;25.10;55.20
55634;DHT22;41504;53.162;6.788;2022-08-02T11:45:05;25.10;54.30
55634;DHT22;41504;53.162;6.788;2022-08-02T11:47:32;25.10;54.40
55634;DHT22;41504;53.162;6.788;2022-08-02T11:50:08;25.10;54.50
55634;DHT22;41504;53.162;6.788;2022-08-02T11:52:35;25.20;54.70
55634;DHT22;41504;53.162;6.788;2022-08-02T11:55:01;25.30;54.90
55634;DHT22;41504;53.162;6.788;2022-08-02T11:57:27;25.30;55.00
55634;DHT22;41504;53.162;6.788;2022-08-02T11:59:55;25.40;54.80
55634;DHT22;41504;53.162;6.788;2022-08-02T12:02:31;25.40;54.80
55634;DHT22;41504;53.162;6.788;2022-08-02T12:05:00;25.40;54.70
55634;DHT22;41504;53.162;6.788;2022-08-02T12:07:37;25.40;55.20
55634;DHT22;41504;53.162;6.788;2022-08-02T12:10:06;25.40;55.60
55634;DHT22;41504;53.162;6.788;2022-08-02T12:12:32;25.30;55.60
55634;DHT22;41504;53.162;6.788;2022-08-02T12:14:57;25.40;55.70
55634;DHT22;41504;53.162;6.788;2022-08-02T12:17:24;25.40;55.70
55634;DHT22;41504;53.162;6.788;2022-08-02T12:20:09;25.40;54.90
55634;DHT22;41504;53.162;6.788;2022-08-02T12:22:35;25.40;55.10
55634;DHT22;41504;53.162;6.788;2022-08-02T12:25:18;25.40;55.50
55634;DHT22;41504;53.162;6.788;2022-08-02T12:27:45;25.40;55.90
55634;DHT22;41504;53.162;6.788;2022-08-02T12:30:12;25.40;56.00
55634;DHT22;41504;53.162;6.788;2022-08-02T12:32:39;25.40;56.50
55634;DHT22;41504;53.162;6.788;2022-08-02T12:35:12;25.40;56.10
55634;DHT22;41504;53.162;6.788;2022-08-02T12:37:40;25.40;56.30
55634;DHT22;41504;53.162;6.788;2022-08-02T12:40:29;25.40;56.10
55634;DHT22;41504;53.162;6.788;2022-08-02T12:42:58;25.40;56.50
55634;DHT22;41504;53.162;6.788;2022-08-02T12:45:25;25.40;56.00
55634;DHT22;41504;53.162;6.788;2022-08-02T12:47:55;25.40;55.50
55634;DHT22;41504;53.162;6.788;2022-08-02T12:50:27;25.40;54.40
55634;DHT22;41504;53.162;6.788;2022-08-02T12:53:14;25.40;54.50
55634;DHT22;41504;53.162;6.788;2022-08-02T12:55:57;25.40;54.50
55634;DHT22;41504;53.162;6.788;2022-08-02T12:58:23;25.40;54.10
55634;DHT22;41504;53.162;6.788;2022-08-02T13:01:00;25.40;54.50
55634;DHT22;41504;53.162;6.788;2022-08-02T13:03:26;25.40;54.70
55634;DHT22;41504;53.162;6.788;2022-08-02T13:05:52;25.30;54.70
55634;DHT22;41504;53.162;6.788;2022-08-02T13:08:18;25.30;54.90
55634;DHT22;41504;53.162;6.788;2022-08-02T13:10:44;25.20;55.10
55634;DHT22;41504;53.162;6.788;2022-08-02T13:13:10;25.20;55.80
55634;DHT22;41504;53.162;6.788;2022-08-02T13:15:36;25.10;56.20
55634;DHT22;41504;53.162;6.788;2022-08-02T13:18:02;25.10;56.30
55634;DHT22;41504;53.162;6.788;2022-08-02T13:20:28;25.20;56.40
55634;DHT22;41504;53.162;6.788;2022-08-02T13:22:54;25.20;56.60
55634;DHT22;41504;53.162;6.788;2022-08-02T13:25:21;25.30;57.00
55634;DHT22;41504;53.162;6.788;2022-08-02T13:27:51;25.30;56.90
55634;DHT22;41504;53.162;6.788;2022-08-02T13:30:17;25.30;56.80
55634;DHT22;41504;53.162;6.788;2022-08-02T13:32:43;25.20;57.00
55634;DHT22;41504;53.162;6.788;2022-08-02T13:35:09;25.10;57.50
55634;DHT22;41504;53.162;6.788;2022-08-02T13:37:35;25.10;57.80
55634;DHT22;41504;53.162;6.788;2022-08-02T13:40:02;25.00;57.90
55634;DHT22;41504;53.162;6.788;2022-08-02T13:42:28;24.90;58.00
55634;DHT22;41504;53.162;6.788;2022-08-02T13:44:54;24.90;58.50
55634;DHT22;41504;53.162;6.788;2022-08-02T13:47:19;24.80;58.50
55634;DHT22;41504;53.162;6.788;2022-08-02T13:49:45;24.80;58.90
55634;DHT22;41504;53.162;6.788;2022-08-02T13:52:11;24.70;59.30
55634;DHT22;41504;53.162;6.788;2022-08-02T13:54:37;24.70;59.60
55634;DHT22;41504;53.162;6.788;2022-08-02T13:57:03;24.60;59.70
55634;DHT22;41504;53.162;6.788;2022-08-02T13:59:28;24.60;60.10
55634;DHT22;41504;53.162;6.788;2022-08-02T14:01:54;24.60;60.40
55634;DHT22;41504;53.162;6.788;2022-08-02T14:04:21;24.60;60.40
55634;DHT22;41504;53.162;6.788;2022-08-02T14:06:47;24.60;60.50
55634;DHT22;41504;53.162;6.788;2022-08-02T14:09:13;24.50;60.50
55634;DHT22;41504;53.162;6.788;2022-08-02T14:11:39;24.50;60.30
55634;DHT22;41504;53.162;6.788;2022-08-02T14:14:05;24.50;60.00
55634;DHT22;41504;53.162;6.788;2022-08-02T14:16:30;24.50;60.20
55634;DHT22;41504;53.162;6.788;2022-08-02T14:18:56;24.50;60.20
55634;DHT22;41504;53.162;6.788;2022-08-02T14:21:22;24.50;60.10
55634;DHT22;41504;53.162;6.788;2022-08-02T14:23:47;24.40;60.20
55634;DHT22;41504;53.162;6.788;2022-08-02T14:26:13;24.40;60.30
55634;DHT22;41504;53.162;6.788;2022-08-02T14:28:39;24.30;60.50
55634;DHT22;41504;53.162;6.788;2022-08-02T14:31:05;24.40;60.20
55634;DHT22;41504;53.162;6.788;2022-08-02T14:33:31;24.40;60.20
55634;DHT22;41504;53.162;6.788;2022-08-02T14:35:57;24.40;60.30
55634;DHT22;41504;53.162;6.788;2022-08-02T14:38:23;24.40;60.40
55634;DHT22;41504;53.162;6.788;2022-08-02T14:40:49;24.40;60.50
55634;DHT22;41504;53.162;6.788;2022-08-02T14:43:15;24.50;60.00
55634;DHT22;41504;53.162;6.788;2022-08-02T14:46:00;24.50;60.00
55634;DHT22;41504;53.162;6.788;2022-08-02T14:48:27;24.60;59.80
55634;DHT22;41504;53.162;6.788;2022-08-02T14:50:53;24.60;59.70
55634;DHT22;41504;53.162;6.788;2022-08-02T14:53:19;24.60;60.00
55634;DHT22;41504;53.162;6.788;2022-08-02T14:55:45;24.60;60.10
55634;DHT22;41504;53.162;6.788;2022-08-02T14:58:11;24.60;60.20
55634;DHT22;41504;53.162;6.788;2022-08-02T15:00:37;24.70;60.20
55634;DHT22;41504;53.162;6.788;2022-08-02T15:03:03;24.60;60.30
55634;DHT22;41504;53.162;6.788;2022-08-02T15:05:28;24.70;60.20
55634;DHT22;41504;53.162;6.788;2022-08-02T15:07:54;24.70;60.00
55634;DHT22;41504;53.162;6.788;2022-08-02T15:10:20;24.70;59.90
55634;DHT22;41504;53.162;6.788;2022-08-02T15:12:46;24.70;59.50
55634;DHT22;41504;53.162;6.788;2022-08-02T15:15:12;24.80;59.50
55634;DHT22;41504;53.162;6.788;2022-08-02T15:17:38;24.80;59.50
55634;DHT22;41504;53.162;6.788;2022-08-02T15:20:04;24.80;59.80
55634;DHT22;41504;53.162;6.788;2022-08-02T15:22:30;24.90;59.60
55634;DHT22;41504;53.162;6.788;2022-08-02T15:24:56;25.00;59.60
55634;DHT22;41504;53.162;6.788;2022-08-02T15:27:22;25.10;59.40
55634;DHT22;41504;53.162;6.788;2022-08-02T15:29:47;25.20;59.40
55634;DHT22;41504;53.162;6.788;2022-08-02T15:32:15;25.30;59.40
55634;DHT22;41504;53.162;6.788;2022-08-02T15:34:44;25.40;58.80
55634;DHT22;41504;53.162;6.788;2022-08-02T15:37:10;25.50;58.80
55634;DHT22;41504;53.162;6.788;2022-08-02T15:39:36;25.60;59.20
55634;DHT22;41504;53.162;6.788;2022-08-02T15:42:02;25.80;58.80
55634;DHT22;41504;53.162;6.788;2022-08-02T15:44:28;26.00;58.30
55634;DHT22;41504;53.162;6.788;2022-08-02T15:46:53;26.00;58.00
55634;DHT22;41504;53.162;6.788;2022-08-02T15:49:20;26.00;57.80
55634;DHT22;41504;53.162;6.788;2022-08-02T15:51:48;26.10;58.10
55634;DHT22;41504;53.162;6.788;2022-08-02T15:54:15;26.20;57.80
55634;DHT22;41504;53.162;6.788;2022-08-02T15:56:40;26.40;57.60
55634;DHT22;41504;53.162;6.788;2022-08-02T15:59:06;26.50;57.10
55634;DHT22;41504;53.162;6.788;2022-08-02T16:01:32;26.50;56.90
55634;DHT22;41504;53.162;6.788;2022-08-02T16:03:58;26.60;56.50
55634;DHT22;41504;53.162;6.788;2022-08-02T16:06:23;26.70;56.10